sensor_id;sensor_type;location;lat;lon;timestamp;P1;durP1;ratioP1;P2;durP2;ratioP2
50205;SDS011;36098;48.390;10.856;2024-01-15T00:01:06;3.08;;;2.05;;
50205;SDS011;36098;48.390;10.856;2024-01-15T00:03:32;4.22;;;2.45;;
50205;SDS011;36098;48.390;10.856;2024-01-15T00:05:57;3.47;;;2.28;;
50205;SDS011;36098;48.390;10.856;2024-01-15T00:08:22;3.08;;;2.20;;
50205;SDS011;36098;48.390;10.856;2024-01-15T00:10:47;3.67;;;2.40;;
50205;SDS011;36098;48.390;10.856;2024-01-15T00:13:13;3.13;;;2.15;;
50205;SDS011;36098;48.390;10.856;2024-01-15T00:15:38;3.90;;;2.33;;
50205;SDS011;36098;48.390;10.856;2024-01-15T00:18:03;3.08;;;2.25;;
50205;SDS011;36098;48.390;10.856;2024-01-15T00:20:29;3.58;;;2.42;;
50205;SDS011;36098;48.390;10.856;2024-01-15T00:22:54;3.97;;;2.75;;
50205;SDS011;36098;48.390;10.856;2024-01-15T00:25:19;3.08;;;2.17;;
50205;SDS011;36098;48.390;10.856;2024-01-15T00:27:45;3.05;;;2.40;;
50205;SDS011;36098;48.390;10.856;2024-01-15T00:30:10;3.80;;;2.20;;
50205;SDS011;36098;48.390;10.856;2024-01-15T00:32:36;3.50;;;2.13;;
50205;SDS011;36098;48.390;10.856;2024-01-15T00:35:01;2.97;;;2.20;;
50205;SDS011;36098;48.390;10.856;2024-01-15T00:37:28;2.95;;;2.20;;
50205;SDS011;36098;48.390;10.856;2024-01-15T00:39:53;3.65;;;2.33;;
50205;SDS011;36098;48.390;10.856;2024-01-15T00:42:18;4.05;;;2.50;;
50205;SDS011;36098;48.390;10.856;2024-01-15T00:44:44;3.10;;;2.30;;
50205;SDS011;36098;48.390;10.856;2024-01-15T00:47:09;3.10;;;2.20;;
50205;SDS011;36098;48.390;10.856;2024-01-15T00:49:34;3.33;;;2.60;;
50205;SDS011;36098;48.390;10.856;2024-01-15T00:52:00;4.75;;;2.40;;
50205;SDS011;36098;48.390;10.856;2024-01-15T00:54:25;2.85;;;2.15;;
50205;SDS011;36098;48.390;10.856;2024-01-15T00:56:51;3.72;;;2.17;;
50205;SDS011;36098;48.390;10.856;2024-01-15T00:59:16;3.20;;;2.30;;
50205;SDS011;36098;48.390;10.856;2024-01-15T01:01:42;3.30;;;2.50;;
50205;SDS011;36098;48.390;10.856;2024-01-15T01:04:09;3.33;;;2.30;;
50205;SDS011;36098;48.390;10.856;2024-01-15T01:06:35;3.17;;;2.40;;
50205;SDS011;36098;48.390;10.856;2024-01-15T01:09:00;3.13;;;2.22;;
50205;SDS011;36098;48.390;10.856;2024-01-15T01:11:25;3.17;;;2.25;;
50205;SDS011;36098;48.390;10.856;2024-01-15T01:13:51;3.10;;;2.10;;
50205;SDS011;36098;48.390;10.856;2024-01-15T01:16:16;2.30;;;1.88;;
50205;SDS011;36098;48.390;10.856;2024-01-15T01:18:41;3.22;;;2.25;;
50205;SDS011;36098;48.390;10.856;2024-01-15T01:21:07;3.17;;;2.42;;
50205;SDS011;36098;48.390;10.856;2024-01-15T01:23:32;3.42;;;2.10;;
50205;SDS011;36098;48.390;10.856;2024-01-15T01:25:57;2.83;;;2.13;;
50205;SDS011;36098;48.390;10.856;2024-01-15T01:28:23;3.58;;;2.40;;
50205;SDS011;36098;48.390;10.856;2024-01-15T01:30:48;2.88;;;2.13;;
50205;SDS011;36098;48.390;10.856;2024-01-15T01:33:13;3.40;;;2.38;;
50205;SDS011;36098;48.390;10.856;2024-01-15T01:35:38;3.38;;;2.45;;
50205;SDS011;36098;48.390;10.856;2024-01-15T01:38:04;3.28;;;2.17;;
50205;SDS011;36098;48.390;10.856;2024-01-15T01:40:29;3.05;;;2.28;;
50205;SDS011;36098;48.390;10.856;2024-01-15T01:42:54;3.58;;;2.30;;
50205;SDS011;36098;48.390;10.856;2024-01-15T01:45:20;2.42;;;1.88;;
50205;SDS011;36098;48.390;10.856;2024-01-15T01:47:45;4.43;;;2.47;;
50205;SDS011;36098;48.390;10.856;2024-01-15T01:50:10;2.72;;;2.10;;
50205;SDS011;36098;48.390;10.856;2024-01-15T01:52:37;3.20;;;2.20;;
50205;SDS011;36098;48.390;10.856;2024-01-15T01:55:03;2.85;;;2.30;;
50205;SDS011;36098;48.390;10.856;2024-01-15T01:57:29;3.45;;;2.00;;
50205;SDS011;36098;48.390;10.856;2024-01-15T01:59:57;3.65;;;2.30;;
50205;SDS011;36098;48.390;10.856;2024-01-15T02:02:23;2.85;;;2.03;;
50205;SDS011;36098;48.390;10.856;2024-01-15T02:04:49;4.50;;;2.30;;
50205;SDS011;36098;48.390;10.856;2024-01-15T02:07:15;3.78;;;2.22;;
50205;SDS011;36098;48.390;10.856;2024-01-15T02:09:42;3.20;;;2.22;;
50205;SDS011;36098;48.390;10.856;2024-01-15T02:12:09;2.67;;;1.95;;
50205;SDS011;36098;48.390;10.856;2024-01-15T02:14:34;5.32;;;2.20;;
50205;SDS011;36098;48.390;10.856;2024-01-15T02:17:00;2.95;;;1.95;;
50205;SDS011;36098;48.390;10.856;2024-01-15T02:19:25;2.55;;;1.90;;
50205;SDS011;36098;48.390;10.856;2024-01-15T02:21:50;3.33;;;2.00;;
50205;SDS011;36098;48.390;10.856;2024-01-15T02:24:16;2.90;;;2.15;;
50205;SDS011;36098;48.390;10.856;2024-01-15T02:26:41;3.35;;;2.08;;
50205;SDS011;36098;48.390;10.856;2024-01-15T02:29:07;3.05;;;2.15;;
50205;SDS011;36098;48.390;10.856;2024-01-15T02:31:33;2.60;;;1.80;;
50205;SDS011;36098;48.390;10.856;2024-01-15T02:33:59;3.88;;;2.20;;
50205;SDS011;36098;48.390;10.856;2024-01-15T02:36:25;3.40;;;2.13;;
50205;SDS011;36098;48.390;10.856;2024-01-15T02:38:50;3.53;;;2.30;;
50205;SDS011;36098;48.390;10.856;2024-01-15T02:41:15;2.70;;;1.95;;
50205;SDS011;36098;48.390;10.856;2024-01-15T02:43:40;2.65;;;2.13;;
50205;SDS011;36098;48.390;10.856;2024-01-15T02:46:06;2.22;;;1.88;;
50205;SDS011;36098;48.390;10.856;2024-01-15T02:48:31;2.97;;;2.10;;
50205;SDS011;36098;48.390;10.856;2024-01-15T02:50:58;3.55;;;2.15;;
50205;SDS011;36098;48.390;10.856;2024-01-15T02:53:23;3.00;;;2.13;;
50205;SDS011;36098;48.390;10.856;2024-01-15T02:55:48;2.83;;;2.15;;
50205;SDS011;36098;48.390;10.856;2024-01-15T02:58:14;2.67;;;2.10;;
50205;SDS011;36098;48.390;10.856;2024-01-15T03:00:39;3.03;;;2.05;;
50205;SDS011;36098;48.390;10.856;2024-01-15T03:03:05;2.95;;;2.10;;
50205;SDS011;36098;48.390;10.856;2024-01-15T03:05:30;4.05;;;2.20;;
50205;SDS011;36098;48.390;10.856;2024-01-15T03:07:55;2.80;;;1.85;;
50205;SDS011;36098;48.390;10.856;2024-01-15T03:10:20;2.78;;;2.10;;
50205;SDS011;36098;48.390;10.856;2024-01-15T03:12:46;2.80;;;2.00;;
50205;SDS011;36098;48.390;10.856;2024-01-15T03:15:11;2.97;;;2.10;;
50205;SDS011;36098;48.390;10.856;2024-01-15T03:17:36;2.70;;;1.90;;
50205;SDS011;36098;48.390;10.856;2024-01-15T03:20:02;2.85;;;1.90;;
50205;SDS011;36098;48.390;10.856;2024-01-15T03:22:28;2.85;;;1.85;;
50205;SDS011;36098;48.390;10.856;2024-01-15T03:24:53;3.42;;;2.30;;
50205;SDS011;36098;48.390;10.856;2024-01-15T03:27:18;3.60;;;2.17;;
50205;SDS011;36098;48.390;10.856;2024-01-15T03:29:44;3.33;;;1.95;;
50205;SDS011;36098;48.390;10.856;2024-01-15T03:32:09;2.65;;;1.90;;
50205;SDS011;36098;48.390;10.856;2024-01-15T03:34:34;2.90;;;2.10;;
50205;SDS011;36098;48.390;10.856;2024-01-15T03:36:59;2.25;;;1.65;;
50205;SDS011;36098;48.390;10.856;2024-01-15T03:39:25;3.55;;;2.40;;
50205;SDS011;36098;48.390;10.856;2024-01-15T03:41:50;2.45;;;1.85;;
50205;SDS011;36098;48.390;10.856;2024-01-15T03:44:15;3.10;;;2.00;;
50205;SDS011;36098;48.390;10.856;2024-01-15T03:46:41;3.15;;;2.10;;
50205;SDS011;36098;48.390;10.856;2024-01-15T03:49:06;2.92;;;2.17;;
50205;SDS011;36098;48.390;10.856;2024-01-15T03:51:32;2.35;;;1.83;;
50205;SDS011;36098;48.390;10.856;2024-01-15T03:53:57;3.45;;;2.25;;
50205;SDS011;36098;48.390;10.856;2024-01-15T03:56:22;2.75;;;1.90;;
50205;SDS011;36098;48.390;10.856;2024-01-15T03:58:48;2.72;;;1.85;;
50205;SDS011;36098;48.390;10.856;2024-01-15T04:01:13;2.75;;;2.05;;
50205;SDS011;36098;48.390;10.856;2024-01-15T04:03:38;2.17;;;1.67;;
50205;SDS011;36098;48.390;10.856;2024-01-15T04:06:04;3.40;;;2.10;;
50205;SDS011;36098;48.390;10.856;2024-01-15T04:08:29;2.55;;;1.73;;
50205;SDS011;36098;48.390;10.856;2024-01-15T04:10:55;3.22;;;2.22;;
50205;SDS011;36098;48.390;10.856;2024-01-15T04:13:20;2.88;;;1.80;;
50205;SDS011;36098;48.390;10.856;2024-01-15T04:15:46;2.70;;;1.85;;
50205;SDS011;36098;48.390;10.856;2024-01-15T04:18:11;2.55;;;1.98;;
50205;SDS011;36098;48.390;10.856;2024-01-15T04:20:36;3.28;;;2.10;;
50205;SDS011;36098;48.390;10.856;2024-01-15T04:23:02;2.72;;;2.10;;
50205;SDS011;36098;48.390;10.856;2024-01-15T04:25:27;2.55;;;1.88;;
50205;SDS011;36098;48.390;10.856;2024-01-15T04:27:52;2.50;;;1.90;;
50205;SDS011;36098;48.390;10.856;2024-01-15T04:30:17;2.08;;;1.55;;
50205;SDS011;36098;48.390;10.856;2024-01-15T04:32:43;2.70;;;1.88;;
50205;SDS011;36098;48.390;10.856;2024-01-15T04:35:08;2.70;;;1.88;;
50205;SDS011;36098;48.390;10.856;2024-01-15T04:37:33;2.80;;;1.90;;
50205;SDS011;36098;48.390;10.856;2024-01-15T04:39:59;2.10;;;1.83;;
50205;SDS011;36098;48.390;10.856;2024-01-15T04:42:24;2.78;;;1.98;;
50205;SDS011;36098;48.390;10.856;2024-01-15T04:44:49;3.00;;;2.08;;
50205;SDS011;36098;48.390;10.856;2024-01-15T04:47:15;3.00;;;2.05;;
50205;SDS011;36098;48.390;10.856;2024-01-15T04:49:40;2.30;;;1.65;;
50205;SDS011;36098;48.390;10.856;2024-01-15T04:52:05;2.38;;;1.90;;
50205;SDS011;36098;48.390;10.856;2024-01-15T04:54:31;2.50;;;1.70;;
50205;SDS011;36098;48.390;10.856;2024-01-15T04:56:56;2.38;;;1.58;;
50205;SDS011;36098;48.390;10.856;2024-01-15T04:59:21;2.67;;;2.00;;
50205;SDS011;36098;48.390;10.856;2024-01-15T05:01:47;2.78;;;1.90;;
50205;SDS011;36098;48.390;10.856;2024-01-15T05:04:13;3.10;;;1.92;;
50205;SDS011;36098;48.390;10.856;2024-01-15T05:06:39;3.00;;;2.00;;
50205;SDS011;36098;48.390;10.856;2024-01-15T05:09:04;2.72;;;1.80;;
50205;SDS011;36098;48.390;10.856;2024-01-15T05:11:29;3.05;;;2.20;;
50205;SDS011;36098;48.390;10.856;2024-01-15T05:13:55;2.20;;;1.80;;
50205;SDS011;36098;48.390;10.856;2024-01-15T05:16:20;2.78;;;1.88;;
50205;SDS011;36098;48.390;10.856;2024-01-15T05:18:45;2.80;;;2.03;;
50205;SDS011;36098;48.390;10.856;2024-01-15T05:21:11;2.15;;;1.80;;
50205;SDS011;36098;48.390;10.856;2024-01-15T05:23:36;2.95;;;1.95;;
50205;SDS011;36098;48.390;10.856;2024-01-15T05:26:01;3.15;;;1.85;;
50205;SDS011;36098;48.390;10.856;2024-01-15T05:28:27;3.15;;;1.85;;
50205;SDS011;36098;48.390;10.856;2024-01-15T05:30:52;2.25;;;1.58;;
50205;SDS011;36098;48.390;10.856;2024-01-15T05:33:19;2.40;;;1.73;;
50205;SDS011;36098;48.390;10.856;2024-01-15T05:35:44;1.80;;;1.42;;
50205;SDS011;36098;48.390;10.856;2024-01-15T05:38:10;2.85;;;1.77;;
50205;SDS011;36098;48.390;10.856;2024-01-15T05:40:35;2.97;;;1.88;;
50205;SDS011;36098;48.390;10.856;2024-01-15T05:43:00;2.60;;;1.70;;
50205;SDS011;36098;48.390;10.856;2024-01-15T05:45:26;2.90;;;1.77;;
50205;SDS011;36098;48.390;10.856;2024-01-15T05:47:51;2.80;;;1.77;;
50205;SDS011;36098;48.390;10.856;2024-01-15T05:50:17;1.98;;;1.65;;
50205;SDS011;36098;48.390;10.856;2024-01-15T05:52:43;2.30;;;1.70;;
50205;SDS011;36098;48.390;10.856;2024-01-15T05:55:08;2.58;;;1.60;;
50205;SDS011;36098;48.390;10.856;2024-01-15T05:57:34;3.78;;;1.92;;
50205;SDS011;36098;48.390;10.856;2024-01-15T06:00:00;2.38;;;1.63;;
50205;SDS011;36098;48.390;10.856;2024-01-15T06:02:25;2.05;;;1.63;;
50205;SDS011;36098;48.390;10.856;2024-01-15T06:04:50;5.40;;;1.50;;
50205;SDS011;36098;48.390;10.856;2024-01-15T06:07:15;4.88;;;1.85;;
50205;SDS011;36098;48.390;10.856;2024-01-15T06:09:41;2.75;;;1.65;;
50205;SDS011;36098;48.390;10.856;2024-01-15T06:12:07;5.65;;;2.10;;
50205;SDS011;36098;48.390;10.856;2024-01-15T06:14:32;6.97;;;2.13;;
50205;SDS011;36098;48.390;10.856;2024-01-15T06:16:58;12.80;;;1.90;;
50205;SDS011;36098;48.390;10.856;2024-01-15T06:19:23;4.22;;;1.60;;
50205;SDS011;36098;48.390;10.856;2024-01-15T06:21:48;5.95;;;1.67;;
50205;SDS011;36098;48.390;10.856;2024-01-15T06:24:13;3.17;;;1.90;;
50205;SDS011;36098;48.390;10.856;2024-01-15T06:26:40;5.70;;;1.90;;
50205;SDS011;36098;48.390;10.856;2024-01-15T06:29:05;5.72;;;2.05;;
50205;SDS011;36098;48.390;10.856;2024-01-15T06:31:30;5.65;;;2.10;;
50205;SDS011;36098;48.390;10.856;2024-01-15T06:33:56;5.50;;;1.75;;
50205;SDS011;36098;48.390;10.856;2024-01-15T06:36:21;4.40;;;1.80;;
50205;SDS011;36098;48.390;10.856;2024-01-15T06:38:46;4.40;;;1.85;;
50205;SDS011;36098;48.390;10.856;2024-01-15T06:41:12;5.75;;;1.90;;
50205;SDS011;36098;48.390;10.856;2024-01-15T06:43:37;5.03;;;1.90;;
50205;SDS011;36098;48.390;10.856;2024-01-15T06:46:02;7.70;;;1.80;;
50205;SDS011;36098;48.390;10.856;2024-01-15T06:48:28;5.78;;;1.73;;
50205;SDS011;36098;48.390;10.856;2024-01-15T06:50:53;5.28;;;1.50;;
50205;SDS011;36098;48.390;10.856;2024-01-15T06:53:18;4.40;;;1.77;;
50205;SDS011;36098;48.390;10.856;2024-01-15T06:55:44;3.67;;;1.60;;
50205;SDS011;36098;48.390;10.856;2024-01-15T06:58:09;5.95;;;1.60;;
50205;SDS011;36098;48.390;10.856;2024-01-15T07:00:35;3.63;;;1.48;;
50205;SDS011;36098;48.390;10.856;2024-01-15T07:03:00;3.88;;;1.63;;
50205;SDS011;36098;48.390;10.856;2024-01-15T07:05:25;7.50;;;1.90;;
50205;SDS011;36098;48.390;10.856;2024-01-15T07:07:50;2.92;;;1.45;;
50205;SDS011;36098;48.390;10.856;2024-01-15T07:10:16;3.35;;;1.83;;
50205;SDS011;36098;48.390;10.856;2024-01-15T07:12:42;3.55;;;1.58;;
50205;SDS011;36098;48.390;10.856;2024-01-15T07:15:08;3.95;;;1.63;;
50205;SDS011;36098;48.390;10.856;2024-01-15T07:17:33;5.38;;;1.88;;
50205;SDS011;36098;48.390;10.856;2024-01-15T07:19:59;3.33;;;1.50;;
50205;SDS011;36098;48.390;10.856;2024-01-15T07:22:24;2.95;;;1.60;;
50205;SDS011;36098;48.390;10.856;2024-01-15T07:24:49;5.75;;;1.70;;
50205;SDS011;36098;48.390;10.856;2024-01-15T07:27:15;2.95;;;1.30;;
50205;SDS011;36098;48.390;10.856;2024-01-15T07:29:41;3.13;;;1.40;;
50205;SDS011;36098;48.390;10.856;2024-01-15T07:32:07;6.70;;;1.48;;
50205;SDS011;36098;48.390;10.856;2024-01-15T07:34:33;3.70;;;1.73;;
50205;SDS011;36098;48.390;10.856;2024-01-15T07:36:58;1.80;;;1.30;;
50205;SDS011;36098;48.390;10.856;2024-01-15T07:39:23;3.00;;;1.42;;
50205;SDS011;36098;48.390;10.856;2024-01-15T07:41:49;2.75;;;1.58;;
50205;SDS011;36098;48.390;10.856;2024-01-15T07:44:15;2.13;;;1.35;;
50205;SDS011;36098;48.390;10.856;2024-01-15T07:46:43;2.17;;;1.58;;
50205;SDS011;36098;48.390;10.856;2024-01-15T07:49:10;3.70;;;1.50;;
50205;SDS011;36098;48.390;10.856;2024-01-15T07:51:35;4.15;;;1.50;;
50205;SDS011;36098;48.390;10.856;2024-01-15T07:54:00;4.75;;;1.50;;
50205;SDS011;36098;48.390;10.856;2024-01-15T07:56:25;4.22;;;1.60;;
50205;SDS011;36098;48.390;10.856;2024-01-15T07:58:52;6.70;;;1.67;;
50205;SDS011;36098;48.390;10.856;2024-01-15T08:01:17;2.40;;;1.40;;
50205;SDS011;36098;48.390;10.856;2024-01-15T08:03:42;2.05;;;1.30;;
50205;SDS011;36098;48.390;10.856;2024-01-15T08:06:08;3.58;;;1.85;;
50205;SDS011;36098;48.390;10.856;2024-01-15T08:08:34;3.03;;;1.40;;
50205;SDS011;36098;48.390;10.856;2024-01-15T08:11:00;2.17;;;1.40;;
50205;SDS011;36098;48.390;10.856;2024-01-15T08:13:26;3.47;;;1.50;;
50205;SDS011;36098;48.390;10.856;2024-01-15T08:15:51;2.53;;;1.17;;
50205;SDS011;36098;48.390;10.856;2024-01-15T08:18:16;2.55;;;1.45;;
50205;SDS011;36098;48.390;10.856;2024-01-15T08:20:42;3.10;;;1.45;;
50205;SDS011;36098;48.390;10.856;2024-01-15T08:23:07;2.92;;;1.50;;
50205;SDS011;36098;48.390;10.856;2024-01-15T08:25:32;2.95;;;1.33;;
50205;SDS011;36098;48.390;10.856;2024-01-15T08:27:58;2.28;;;1.40;;
50205;SDS011;36098;48.390;10.856;2024-01-15T08:30:23;1.92;;;1.23;;
50205;SDS011;36098;48.390;10.856;2024-01-15T08:32:55;2.42;;;1.45;;
50205;SDS011;36098;48.390;10.856;2024-01-15T08:35:21;1.77;;;1.25;;
50205;SDS011;36098;48.390;10.856;2024-01-15T08:37:51;1.65;;;1.20;;
50205;SDS011;36098;48.390;10.856;2024-01-15T08:40:18;9.20;;;1.90;;
50205;SDS011;36098;48.390;10.856;2024-01-15T08:42:43;6.82;;;4.53;;
50205;SDS011;36098;48.390;10.856;2024-01-15T08:45:10;6.65;;;3.30;;
50205;SDS011;36098;48.390;10.856;2024-01-15T08:47:35;16.88;;;7.07;;
50205;SDS011;36098;48.390;10.856;2024-01-15T08:50:01;9.30;;;4.72;;
50205;SDS011;36098;48.390;10.856;2024-01-15T08:52:27;10.23;;;5.43;;
50205;SDS011;36098;48.390;10.856;2024-01-15T08:54:52;10.15;;;4.82;;
50205;SDS011;36098;48.390;10.856;2024-01-15T08:57:17;8.05;;;4.72;;
50205;SDS011;36098;48.390;10.856;2024-01-15T08:59:42;8.75;;;4.60;;
50205;SDS011;36098;48.390;10.856;2024-01-15T09:02:08;6.97;;;4.18;;
50205;SDS011;36098;48.390;10.856;2024-01-15T09:04:33;8.35;;;4.25;;
50205;SDS011;36098;48.390;10.856;2024-01-15T09:06:59;6.35;;;4.28;;
50205;SDS011;36098;48.390;10.856;2024-01-15T09:09:24;6.72;;;3.88;;
50205;SDS011;36098;48.390;10.856;2024-01-15T09:11:50;9.57;;;4.22;;
50205;SDS011;36098;48.390;10.856;2024-01-15T09:14:16;5.53;;;3.72;;
50205;SDS011;36098;48.390;10.856;2024-01-15T09:16:41;8.15;;;3.47;;
50205;SDS011;36098;48.390;10.856;2024-01-15T09:19:06;5.22;;;3.60;;
50205;SDS011;36098;48.390;10.856;2024-01-15T09:21:32;6.00;;;3.67;;
50205;SDS011;36098;48.390;10.856;2024-01-15T09:23:57;6.68;;;3.78;;
50205;SDS011;36098;48.390;10.856;2024-01-15T09:26:23;7.60;;;4.00;;
50205;SDS011;36098;48.390;10.856;2024-01-15T09:28:48;6.85;;;4.20;;
50205;SDS011;36098;48.390;10.856;2024-01-15T09:31:14;8.18;;;4.35;;
50205;SDS011;36098;48.390;10.856;2024-01-15T09:33:39;5.82;;;4.25;;
50205;SDS011;36098;48.390;10.856;2024-01-15T09:36:04;6.18;;;4.20;;
50205;SDS011;36098;48.390;10.856;2024-01-15T09:38:31;6.75;;;4.07;;
50205;SDS011;36098;48.390;10.856;2024-01-15T09:40:56;5.65;;;4.03;;
50205;SDS011;36098;48.390;10.856;2024-01-15T09:43:22;4.70;;;3.92;;
50205;SDS011;36098;48.390;10.856;2024-01-15T09:45:48;5.63;;;4.10;;
50205;SDS011;36098;48.390;10.856;2024-01-15T09:48:15;5.38;;;4.20;;
50205;SDS011;36098;48.390;10.856;2024-01-15T09:50:41;7.05;;;4.25;;
50205;SDS011;36098;48.390;10.856;2024-01-15T09:53:06;4.63;;;3.78;;
50205;SDS011;36098;48.390;10.856;2024-01-15T09:55:32;4.30;;;3.90;;
50205;SDS011;36098;48.390;10.856;2024-01-15T09:57:57;5.05;;;3.60;;
50205;SDS011;36098;48.390;10.856;2024-01-15T10:00:26;6.28;;;4.00;;
50205;SDS011;36098;48.390;10.856;2024-01-15T10:02:52;5.82;;;4.22;;
50205;SDS011;36098;48.390;10.856;2024-01-15T10:05:17;5.93;;;3.70;;
50205;SDS011;36098;48.390;10.856;2024-01-15T10:07:43;5.90;;;3.50;;
50205;SDS011;36098;48.390;10.856;2024-01-15T10:10:10;4.00;;;3.50;;
50205;SDS011;36098;48.390;10.856;2024-01-15T10:12:36;5.32;;;3.53;;
50205;SDS011;36098;48.390;10.856;2024-01-15T10:15:02;5.00;;;3.55;;
50205;SDS011;36098;48.390;10.856;2024-01-15T10:17:29;5.05;;;3.45;;
50205;SDS011;36098;48.390;10.856;2024-01-15T10:19:56;3.85;;;3.13;;
50205;SDS011;36098;48.390;10.856;2024-01-15T10:22:21;6.85;;;3.05;;
50205;SDS011;36098;48.390;10.856;2024-01-15T10:24:46;3.88;;;2.95;;
50205;SDS011;36098;48.390;10.856;2024-01-15T10:27:12;5.82;;;3.30;;
50205;SDS011;36098;48.390;10.856;2024-01-15T10:29:37;3.95;;;3.25;;
50205;SDS011;36098;48.390;10.856;2024-01-15T10:32:03;4.68;;;3.22;;
50205;SDS011;36098;48.390;10.856;2024-01-15T10:34:31;6.55;;;3.42;;
50205;SDS011;36098;48.390;10.856;2024-01-15T10:36:57;4.88;;;3.15;;
50205;SDS011;36098;48.390;10.856;2024-01-15T10:39:22;5.93;;;3.17;;
50205;SDS011;36098;48.390;10.856;2024-01-15T10:41:48;4.13;;;3.13;;
50205;SDS011;36098;48.390;10.856;2024-01-15T10:44:14;5.18;;;2.90;;
50205;SDS011;36098;48.390;10.856;2024-01-15T10:46:39;5.90;;;2.90;;
50205;SDS011;36098;48.390;10.856;2024-01-15T10:49:05;4.88;;;3.13;;
50205;SDS011;36098;48.390;10.856;2024-01-15T10:51:31;4.35;;;2.78;;
50205;SDS011;36098;48.390;10.856;2024-01-15T10:53:57;4.05;;;2.85;;
50205;SDS011;36098;48.390;10.856;2024-01-15T10:56:24;5.28;;;3.08;;
50205;SDS011;36098;48.390;10.856;2024-01-15T10:58:52;5.38;;;3.55;;
50205;SDS011;36098;48.390;10.856;2024-01-15T11:01:19;4.50;;;3.08;;
50205;SDS011;36098;48.390;10.856;2024-01-15T11:03:45;3.70;;;2.90;;
50205;SDS011;36098;48.390;10.856;2024-01-15T11:06:18;8.73;;;3.08;;
50205;SDS011;36098;48.390;10.856;2024-01-15T11:08:50;4.90;;;2.90;;
50205;SDS011;36098;48.390;10.856;2024-01-15T11:11:17;5.25;;;2.83;;
50205;SDS011;36098;48.390;10.856;2024-01-15T11:13:45;6.85;;;3.20;;
50205;SDS011;36098;48.390;10.856;2024-01-15T11:16:12;16.92;;;3.50;;
50205;SDS011;36098;48.390;10.856;2024-01-15T11:18:40;6.47;;;2.92;;
50205;SDS011;36098;48.390;10.856;2024-01-15T11:23:49;7.63;;;3.00;;
50205;SDS011;36098;48.390;10.856;2024-01-15T11:26:38;6.63;;;3.20;;
50205;SDS011;36098;48.390;10.856;2024-01-15T11:34:21;9.65;;;2.67;;
50205;SDS011;36098;48.390;10.856;2024-01-15T11:39:43;5.60;;;2.80;;
50205;SDS011;36098;48.390;10.856;2024-01-15T11:42:10;6.72;;;2.92;;
50205;SDS011;36098;48.390;10.856;2024-01-15T11:44:37;7.35;;;2.95;;
50205;SDS011;36098;48.390;10.856;2024-01-15T11:47:04;7.00;;;2.92;;
50205;SDS011;36098;48.390;10.856;2024-01-15T11:52:37;8.93;;;3.10;;
50205;SDS011;36098;48.390;10.856;2024-01-15T11:55:09;7.25;;;2.95;;
50205;SDS011;36098;48.390;10.856;2024-01-15T11:57:52;9.45;;;3.20;;
50205;SDS011;36098;48.390;10.856;2024-01-15T12:00:21;5.60;;;2.85;;
50205;SDS011;36098;48.390;10.856;2024-01-15T12:02:47;6.78;;;2.97;;
50205;SDS011;36098;48.390;10.856;2024-01-15T12:05:14;8.55;;;3.28;;
50205;SDS011;36098;48.390;10.856;2024-01-15T12:07:42;6.10;;;2.83;;
50205;SDS011;36098;48.390;10.856;2024-01-15T12:10:10;15.50;;;3.03;;
50205;SDS011;36098;48.390;10.856;2024-01-15T12:12:39;9.43;;;3.25;;
50205;SDS011;36098;48.390;10.856;2024-01-15T12:15:07;6.18;;;3.53;;
50205;SDS011;36098;48.390;10.856;2024-01-15T12:17:33;5.63;;;2.65;;
50205;SDS011;36098;48.390;10.856;2024-01-15T12:19:59;7.50;;;2.90;;
50205;SDS011;36098;48.390;10.856;2024-01-15T12:22:25;6.57;;;3.00;;
50205;SDS011;36098;48.390;10.856;2024-01-15T12:24:52;5.55;;;3.00;;
50205;SDS011;36098;48.390;10.856;2024-01-15T12:27:17;6.20;;;2.95;;
50205;SDS011;36098;48.390;10.856;2024-01-15T12:29:43;4.45;;;2.75;;
50205;SDS011;36098;48.390;10.856;2024-01-15T12:32:08;6.45;;;2.97;;
50205;SDS011;36098;48.390;10.856;2024-01-15T12:34:33;5.63;;;2.83;;
50205;SDS011;36098;48.390;10.856;2024-01-15T12:36:59;6.35;;;3.20;;
50205;SDS011;36098;48.390;10.856;2024-01-15T12:39:24;5.63;;;2.55;;
50205;SDS011;36098;48.390;10.856;2024-01-15T12:41:50;3.83;;;2.55;;
50205;SDS011;36098;48.390;10.856;2024-01-15T12:44:16;4.93;;;2.58;;
50205;SDS011;36098;48.390;10.856;2024-01-15T12:46:41;4.82;;;2.72;;
50205;SDS011;36098;48.390;10.856;2024-01-15T12:49:07;5.00;;;2.90;;
50205;SDS011;36098;48.390;10.856;2024-01-15T12:51:34;4.30;;;2.65;;
50205;SDS011;36098;48.390;10.856;2024-01-15T12:53:59;5.70;;;3.15;;
50205;SDS011;36098;48.390;10.856;2024-01-15T12:56:24;4.03;;;2.63;;
50205;SDS011;36098;48.390;10.856;2024-01-15T12:58:50;7.35;;;2.83;;
50205;SDS011;36098;48.390;10.856;2024-01-15T13:01:15;6.25;;;2.70;;
50205;SDS011;36098;48.390;10.856;2024-01-15T13:03:40;4.55;;;3.20;;
50205;SDS011;36098;48.390;10.856;2024-01-15T13:06:06;6.30;;;2.47;;
50205;SDS011;36098;48.390;10.856;2024-01-15T13:08:31;6.10;;;2.45;;
50205;SDS011;36098;48.390;10.856;2024-01-15T13:10:57;6.45;;;2.60;;
50205;SDS011;36098;48.390;10.856;2024-01-15T13:13:22;4.15;;;2.38;;
50205;SDS011;36098;48.390;10.856;2024-01-15T13:15:48;3.42;;;2.30;;
50205;SDS011;36098;48.390;10.856;2024-01-15T13:18:13;4.57;;;2.50;;
50205;SDS011;36098;48.390;10.856;2024-01-15T13:20:39;3.60;;;2.50;;
50205;SDS011;36098;48.390;10.856;2024-01-15T13:23:04;4.70;;;2.50;;
50205;SDS011;36098;48.390;10.856;2024-01-15T13:25:29;5.28;;;2.60;;
50205;SDS011;36098;48.390;10.856;2024-01-15T13:27:54;4.38;;;2.67;;
50205;SDS011;36098;48.390;10.856;2024-01-15T13:30:20;6.50;;;2.90;;
50205;SDS011;36098;48.390;10.856;2024-01-15T13:32:45;7.07;;;2.50;;
50205;SDS011;36098;48.390;10.856;2024-01-15T13:35:11;3.10;;;2.10;;
50205;SDS011;36098;48.390;10.856;2024-01-15T13:37:38;5.78;;;2.50;;
50205;SDS011;36098;48.390;10.856;2024-01-15T13:40:06;7.05;;;2.65;;
50205;SDS011;36098;48.390;10.856;2024-01-15T13:42:34;3.65;;;2.50;;
50205;SDS011;36098;48.390;10.856;2024-01-15T13:44:59;6.60;;;2.30;;
50205;SDS011;36098;48.390;10.856;2024-01-15T13:47:24;4.72;;;2.33;;
50205;SDS011;36098;48.390;10.856;2024-01-15T13:49:50;4.68;;;2.30;;
50205;SDS011;36098;48.390;10.856;2024-01-15T13:52:15;3.25;;;2.20;;
50205;SDS011;36098;48.390;10.856;2024-01-15T13:54:40;4.25;;;2.38;;
50205;SDS011;36098;48.390;10.856;2024-01-15T13:57:05;3.72;;;2.13;;
50205;SDS011;36098;48.390;10.856;2024-01-15T13:59:31;4.93;;;2.40;;
50205;SDS011;36098;48.390;10.856;2024-01-15T14:01:57;4.05;;;2.38;;
50205;SDS011;36098;48.390;10.856;2024-01-15T14:04:22;3.45;;;2.20;;
50205;SDS011;36098;48.390;10.856;2024-01-15T14:06:48;3.97;;;2.10;;
50205;SDS011;36098;48.390;10.856;2024-01-15T14:09:13;6.35;;;2.40;;
50205;SDS011;36098;48.390;10.856;2024-01-15T14:11:39;3.88;;;2.00;;
50205;SDS011;36098;48.390;10.856;2024-01-15T14:14:05;5.00;;;2.45;;
50205;SDS011;36098;48.390;10.856;2024-01-15T14:16:30;7.22;;;2.20;;
50205;SDS011;36098;48.390;10.856;2024-01-15T14:18:55;4.15;;;2.30;;
50205;SDS011;36098;48.390;10.856;2024-01-15T14:21:20;5.78;;;2.30;;
50205;SDS011;36098;48.390;10.856;2024-01-15T14:23:46;6.63;;;2.50;;
50205;SDS011;36098;48.390;10.856;2024-01-15T14:26:11;3.75;;;2.38;;
50205;SDS011;36098;48.390;10.856;2024-01-15T14:28:36;8.57;;;2.83;;
50205;SDS011;36098;48.390;10.856;2024-01-15T14:31:01;5.38;;;2.55;;
50205;SDS011;36098;48.390;10.856;2024-01-15T14:33:27;7.20;;;2.80;;
50205;SDS011;36098;48.390;10.856;2024-01-15T14:35:53;4.40;;;2.20;;
50205;SDS011;36098;48.390;10.856;2024-01-15T14:38:18;3.20;;;1.92;;